Haughton, Louisiana
Current Conditions -  °F | °C
As of 6:58 PM on Friday 21 Nov 2014 (Local Time) from KBAD Reporting Station
Broken Clouds Broken Clouds  
Wind Chill: 59°   Ceiling: 8500
Heat Index: 59°   Visibility: 10mi
Dew Point: 52°   Wind: 10mph
Humidity: 77%   Direction: 160°SSE
Pressure: 30.2"   Gusts: NA
Location:  32.53°N, 93.5°W
Report Text: KBAD 220058Z AUTO 16009KT 10SM SCT065 BKN085 15/11 A3020 RMK AO2 RAB0009E0023 SLP229 P0001 T01510110
Loading
Personal Weather Stations






























Interactive Weather Map New forecast layout! Learn more

10-Day Weather Forecast

Advertisements
Track Severe Weather on mobile